Terminal Aerodrome Forecast
Issued by NWS Nashville, TN

Home | Current Version | Previous Version | Text Only | Print | Product List | Glossary On
Versions: 1 2 3 4 5 6 7 8 9 10 11 12 13 14 15 16 17 18 19
000
FTUS44 KOHX 252328
TAFBNA
TAF
KBNA 252328Z 2600/2624 18004KT P6SM BKN050
     FM260400 18004KT P6SM VCTS BKN040CB BKN250
     FM260800 19004KT P6SM BKN060 BKN250
     FM261500 20006KT P6SM VCTS BKN040CB
     FM261900 20006KT 6SM -TSRA BR OVC035CB=

USA.gov is the U.S. government's official web portal to all federal, state and local government web resources and services.